首页
METAR-TAF:

METAR-TAF

机场 :

Dyersburg, 田纳西州, 美国

纬度: 36-00N, 经度: 089-24W, 海拔: 103米

当前天气观测

该预报发布于43分钟前的01:56 UTC
静风
温度 2°C
湿度 60%
气压 1023 hPa
能見度: 16.1公里
阴天层高于11000英尺

METAR: KDYR 230156Z AUTO 00000KT 10SM OVC110 02/M05 A3021 RMK AO2 SLP240 T00221050 FZRANO PNO $

时间: 20:39 (02:39 UTC)


TAF: 丢失

超过4000个机场的气象观测和天气预报(METAR&TAF报告)。

可查询的气象台以黄色和红色小点在地图上表示。

将鼠标移到小点上方,可查看气象台名称。

然后点击查看天气观测和预报。

如需切换地图:点击带黑十字的绿色按钮放大地图;点击带横线的绿色按钮缩小地图;或者点击绿色箭头查看邻近地区的地图。


METAR-TAF: